Wetterdaten: Woche 30.08.04 - 05.09.04 (KW36)
Datum Zeit Temperatur Luftfeuchte Luftdruck Niederschlag Taupunkt Windchill Wind
30.08.2004 00:00 14,9 C 91 % 1018 hPa 0,0 l/m 13,5 C 13,8 C 9,3 km/h (2 Bft)
30.08.2004 01:00 14,3 C 93 % 1018 hPa 0,0 l/m 13,2 C 13,6 C 7,3 km/h (2 Bft)
30.08.2004 02:00 14,4 C 97 % 1017 hPa 0,0 l/m 13,9 C 12,9 C 9,9 km/h (2 Bft)
30.08.2004 03:00 14,5 C 98 % 1017 hPa 0,0 l/m 14,2 C 13,1 C 9,9 km/h (2 Bft)
30.08.2004 04:00 14,3 C 98 % 1016 hPa 0,0 l/m 13,9 C 13,3 C 8,6 km/h (2 Bft)
30.08.2004 05:00 14,3 C 98 % 1016 hPa 0,0 l/m 14,0 C 13,1 C 9,5 km/h (2 Bft)
30.08.2004 06:00 14,0 C 98 % 1016 hPa 0,0 l/m 13,7 C 11,4 C 12,3 km/h (3 Bft)
30.08.2004 07:00 14,6 C 96 % 1016 hPa 0,0 l/m 14,0 C 11,5 C 15,0 km/h (3 Bft)
30.08.2004 08:00 15,1 C 94 % 1016 hPa 0,0 l/m 14,1 C 13,2 C 10,8 km/h (2 Bft)
30.08.2004 09:00 16,0 C 88 % 1016 hPa 0,0 l/m 14,1 C 13,1 C 15,0 km/h (3 Bft)
30.08.2004 10:00 17,1 C 80 % 1016 hPa 0,0 l/m 13,6 C 13,3 C 18,5 km/h (3 Bft)
30.08.2004 11:00 18,5 C 70 % 1016 hPa 0,0 l/m 13,0 C 14,7 C 21,0 km/h (4 Bft)
30.08.2004 12:00 19,5 C 65 % 1016 hPa 0,0 l/m 12,9 C 15,8 C 21,8 km/h (4 Bft)
30.08.2004 13:00 19,8 C 63 % 1015 hPa 0,0 l/m 12,6 C 16,7 C 19,1 km/h (3 Bft)
30.08.2004 14:00 18,8 C 68 % 1016 hPa 0,0 l/m 12,8 C 16,2 C 15,5 km/h (3 Bft)
30.08.2004 15:00 18,0 C 73 % 1016 hPa 0,0 l/m 13,1 C 16,5 C 11,2 km/h (2 Bft)
30.08.2004 16:00 18,8 C 64 % 1015 hPa 0,0 l/m 11,9 C 17,4 C 11,1 km/h (2 Bft)
30.08.2004 17:00 17,1 C 79 % 1016 hPa 4,0 l/m 13,3 C 15,0 C 12,5 km/h (3 Bft)
30.08.2004 18:00 14,1 C 91 % 1016 hPa 1,0 l/m 12,7 C 11,3 C 13,6 km/h (3 Bft)
30.08.2004 19:00 13,5 C 94 % 1017 hPa 0,0 l/m 12,5 C 12,9 C 5,8 km/h (2 Bft)
30.08.2004 20:00 13,5 C 95 % 1017 hPa 0,0 l/m 12,7 C 13,4 C 1,7 km/h (1 Bft)
30.08.2004 21:00 13,5 C 98 % 1018 hPa 0,0 l/m 13,1 C 12,7 C 6,6 km/h (2 Bft)
30.08.2004 22:00 13,2 C 97 % 1018 hPa 0,0 l/m 12,8 C 12,5 C 6,9 km/h (2 Bft)
30.08.2004 23:00 13,0 C 93 % 1018 hPa 0,0 l/m 11,9 C 12,4 C 8,0 km/h (2 Bft)
31.08.2004 00:00 12,7 C 90 % 1018 hPa 0,0 l/m 11,2 C 12,0 C 8,6 km/h (2 Bft)
31.08.2004 01:00 12,5 C 91 % 1018 hPa 0,0 l/m 11,0 C 11,5 C 8,9 km/h (2 Bft)
31.08.2004 02:00 12,5 C 90 % 1018 hPa 0,0 l/m 10,9 C 11,3 C 9,2 km/h (2 Bft)
31.08.2004 03:00 12,5 C 85 % 1018 hPa 0,0 l/m 10,1 C 11,9 C 7,8 km/h (2 Bft)
31.08.2004 04:00 12,3 C 86 % 1018 hPa 0,0 l/m 10,0 C 12,2 C 4,1 km/h (1 Bft)
31.08.2004 05:00 11,9 C 89 % 1018 hPa 0,0 l/m 10,2 C 11,9 C 0,8 km/h (0 Bft)
31.08.2004 06:00 11,7 C 92 % 1018 hPa 0,0 l/m 10,4 C 11,7 C 0,7 km/h (0 Bft)
31.08.2004 07:00 11,7 C 94 % 1018 hPa 0,0 l/m 10,8 C 11,7 C 1,5 km/h (1 Bft)
31.08.2004 08:00 12,4 C 92 % 1018 hPa 0,0 l/m 11,1 C 11,7 C 7,0 km/h (2 Bft)
31.08.2004 09:00 13,5 C 84 % 1019 hPa 0,0 l/m 10,8 C 12,0 C 10,3 km/h (2 Bft)
31.08.2004 10:00 14,4 C 73 % 1019 hPa 0,0 l/m 9,5 C 13,0 C 9,8 km/h (2 Bft)
31.08.2004 11:00 15,9 C 63 % 1019 hPa 0,0 l/m 8,9 C 14,9 C 8,2 km/h (2 Bft)
31.08.2004 12:00 17,0 C 54 % 1019 hPa 0,0 l/m 7,6 C 15,6 C 10,6 km/h (2 Bft)
31.08.2004 13:00 18,1 C 50 % 1018 hPa 0,0 l/m 7,4 C 17,2 C 8,0 km/h (2 Bft)
31.08.2004 14:00 18,1 C 47 % 1018 hPa 0,0 l/m 6,7 C 17,7 C 4,3 km/h (1 Bft)
31.08.2004 15:00 17,8 C 49 % 1018 hPa 0,0 l/m 6,9 C 17,7 C 1,7 km/h (1 Bft)
31.08.2004 16:00 17,6 C 51 % 1018 hPa 0,0 l/m 7,4 C 17,6 C 3,2 km/h (1 Bft)
31.08.2004 17:00 17,3 C 51 % 1018 hPa 0,0 l/m 7,2 C 17,1 C 1,4 km/h (1 Bft)
31.08.2004 18:00 17,1 C 59 % 1018 hPa 0,0 l/m 8,9 C 17,1 C 0,0 km/h (0 Bft)
31.08.2004 19:00 15,6 C 70 % 1018 hPa 0,0 l/m 10,0 C 15,6 C 0,0 km/h (0 Bft)
31.08.2004 20:00 14,5 C 72 % 1019 hPa 0,0 l/m 9,5 C 14,2 C 4,1 km/h (1 Bft)
31.08.2004 21:00 13,4 C 73 % 1019 hPa 0,0 l/m 8,7 C 13,2 C 3,5 km/h (1 Bft)
31.08.2004 22:00 12,7 C 79 % 1019 hPa 0,0 l/m 9,1 C 12,7 C 0,6 km/h (0 Bft)
31.08.2004 23:00 12,3 C 81 % 1019 hPa 0,0 l/m 9,2 C 12,1 C 3,5 km/h (1 Bft)
01.09.2004 00:00 12,0 C 81 % 1019 hPa 0,0 l/m 8,8 C 11,8 C 6,2 km/h (2 Bft)
01.09.2004 01:00 11,2 C 82 % 1019 hPa 0,0 l/m 8,2 C 11,0 C 4,7 km/h (1 Bft)
01.09.2004 02:00 10,4 C 85 % 1019 hPa 0,0 l/m 7,9 C 10,4 C 0,0 km/h (0 Bft)
01.09.2004 03:00 9,5 C 89 % 1019 hPa 0,0 l/m 7,7 C 9,5 C 0,5 km/h (0 Bft)
01.09.2004 04:00 9,1 C 92 % 1019 hPa 0,0 l/m 7,7 C 9,0 C 0,4 km/h (0 Bft)
01.09.2004 05:00 8,6 C 93 % 1019 hPa 0,0 l/m 7,5 C 8,6 C 2,0 km/h (1 Bft)
01.09.2004 06:00 8,5 C 94 % 1019 hPa 0,0 l/m 7,6 C 8,4 C 1,5 km/h (1 Bft)
01.09.2004 07:00 8,7 C 95 % 1019 hPa 0,0 l/m 8,0 C 8,3 C 5,9 km/h (2 Bft)
01.09.2004 08:00 10,3 C 90 % 1019 hPa 0,0 l/m 8,7 C 9,2 C 8,0 km/h (2 Bft)
01.09.2004 09:00 13,3 C 76 % 1019 hPa 0,0 l/m 9,0 C 11,6 C 9,8 km/h (2 Bft)
01.09.2004 10:00 16,7 C 55 % 1019 hPa 0,0 l/m 7,7 C 13,5 C 15,6 km/h (3 Bft)
01.09.2004 11:00 18,9 C 48 % 1019 hPa 0,0 l/m 7,7 C 16,3 C 15,6 km/h (3 Bft)
01.09.2004 12:00 20,1 C 47 % 1019 hPa 0,0 l/m 8,3 C 18,3 C 12,7 km/h (3 Bft)
01.09.2004 13:00 20,9 C 41 % 1018 hPa 0,0 l/m 7,3 C 19,2 C 12,5 km/h (3 Bft)
01.09.2004 14:00 21,5 C 38 % 1018 hPa 0,0 l/m 6,5 C 20,3 C 10,1 km/h (2 Bft)
01.09.2004 15:00 22,1 C 37 % 1018 hPa 0,0 l/m 6,7 C 21,1 C 10,0 km/h (2 Bft)
01.09.2004 16:00 21,9 C 37 % 1018 hPa 0,0 l/m 6,7 C 20,4 C 11,7 km/h (2 Bft)
01.09.2004 17:00 21,5 C 39 % 1017 hPa 0,0 l/m 7,1 C 19,8 C 13,5 km/h (3 Bft)
01.09.2004 18:00 21,3 C 40 % 1017 hPa 0,0 l/m 7,0 C 20,0 C 11,3 km/h (2 Bft)
01.09.2004 19:00 19,3 C 46 % 1017 hPa 0,0 l/m 7,5 C 19,0 C 6,2 km/h (2 Bft)
01.09.2004 20:00 16,3 C 60 % 1018 hPa 0,0 l/m 8,5 C 16,3 C 0,7 km/h (0 Bft)
01.09.2004 21:00 14,3 C 69 % 1018 hPa 0,0 l/m 8,6 C 14,2 C 2,6 km/h (1 Bft)
01.09.2004 22:00 13,2 C 73 % 1018 hPa 0,0 l/m 8,5 C 13,2 C 2,7 km/h (1 Bft)
01.09.2004 23:00 12,4 C 75 % 1018 hPa 0,0 l/m 8,1 C 12,3 C 5,1 km/h (1 Bft)
02.09.2004 00:00 11,8 C 77 % 1018 hPa 0,0 l/m 7,9 C 11,6 C 4,4 km/h (1 Bft)
02.09.2004 01:00 11,1 C 80 % 1018 hPa 0,0 l/m 7,8 C 10,7 C 6,8 km/h (2 Bft)
02.09.2004 02:00 10,5 C 82 % 1018 hPa 0,0 l/m 7,5 C 10,2 C 6,7 km/h (2 Bft)
02.09.2004 03:00 9,9 C 84 % 1019 hPa 0,0 l/m 7,3 C 9,7 C 4,6 km/h (1 Bft)
02.09.2004 04:00 9,4 C 86 % 1019 hPa 0,0 l/m 7,2 C 9,2 C 4,6 km/h (1 Bft)
02.09.2004 05:00 9,0 C 89 % 1019 hPa 0,0 l/m 7,3 C 8,9 C 2,5 km/h (1 Bft)
02.09.2004 06:00 8,6 C 91 % 1019 hPa 0,0 l/m 7,2 C 8,6 C 0,0 km/h (0 Bft)
02.09.2004 07:00 8,8 C 93 % 1019 hPa 0,0 l/m 7,7 C 8,8 C 0,6 km/h (0 Bft)
02.09.2004 08:00 10,2 C 90 % 1019 hPa 0,0 l/m 8,5 C 9,8 C 4,6 km/h (1 Bft)
02.09.2004 09:00 13,0 C 81 % 1020 hPa 0,0 l/m 9,8 C 13,0 C 1,9 km/h (1 Bft)
02.09.2004 10:00 17,2 C 67 % 1020 hPa 0,0 l/m 11,1 C 17,1 C 4,1 km/h (1 Bft)
02.09.2004 11:00 20,1 C 59 % 1020 hPa 0,0 l/m 11,9 C 19,8 C 6,1 km/h (2 Bft)
02.09.2004 12:00 21,9 C 54 % 1019 hPa 0,0 l/m 12,2 C 21,6 C 6,2 km/h (2 Bft)
02.09.2004 13:00 23,1 C 50 % 1019 hPa 0,0 l/m 12,0 C 22,7 C 7,7 km/h (2 Bft)
02.09.2004 14:00 24,5 C 44 % 1019 hPa 0,0 l/m 11,6 C 24,1 C 6,8 km/h (2 Bft)
02.09.2004 15:00 25,7 C 42 % 1019 hPa 0,0 l/m 11,8 C 25,1 C 8,6 km/h (2 Bft)
02.09.2004 16:00 25,5 C 41 % 1019 hPa 0,0 l/m 11,2 C 25,2 C 6,2 km/h (2 Bft)
02.09.2004 17:00 25,3 C 40 % 1019 hPa 0,0 l/m 10,6 C 25,2 C 3,6 km/h (1 Bft)
02.09.2004 18:00 25,3 C 38 % 1019 hPa 0,0 l/m 10,1 C 25,2 C 3,5 km/h (1 Bft)
02.09.2004 19:00 21,7 C 57 % 1019 hPa 0,0 l/m 12,8 C 21,7 C 0,0 km/h (0 Bft)
02.09.2004 20:00 18,5 C 66 % 1020 hPa 0,0 l/m 12,1 C 18,5 C 0,3 km/h (0 Bft)
02.09.2004 21:00 16,4 C 75 % 1020 hPa 0,0 l/m 11,9 C 16,4 C 0,0 km/h (0 Bft)
02.09.2004 22:00 15,4 C 80 % 1020 hPa 0,0 l/m 12,1 C 15,4 C 0,0 km/h (0 Bft)
02.09.2004 23:00 14,8 C 83 % 1021 hPa 0,0 l/m 11,9 C 14,6 C 2,0 km/h (1 Bft)
03.09.2004 00:00 14,7 C 82 % 1021 hPa 0,0 l/m 11,7 C 14,7 C 0,0 km/h (0 Bft)
04.09.2004 16:00 26,0 C 41 % 1027 hPa 3,0 l/m 11,6 C 26,0 C 1,2 km/h (1 Bft)
04.09.2004 17:00 26,2 C 39 % 1027 hPa 0,0 l/m 10,9 C 26,2 C 0,0 km/h (0 Bft)
04.09.2004 18:00 25,9 C 39 % 1027 hPa 0,0 l/m 10,9 C 25,9 C 0,9 km/h (0 Bft)
04.09.2004 19:00 23,4 C 49 % 1028 hPa 0,0 l/m 12,0 C 23,4 C 1,2 km/h (1 Bft)
04.09.2004 20:00 20,0 C 64 % 1028 hPa 0,0 l/m 12,9 C 20,0 C 0,0 km/h (0 Bft)
04.09.2004 21:00 18,3 C 67 % 1028 hPa 0,0 l/m 12,1 C 18,3 C 0,9 km/h (0 Bft)
04.09.2004 22:00 17,3 C 70 % 1028 hPa 0,0 l/m 11,8 C 17,1 C 5,4 km/h (1 Bft)
04.09.2004 23:00 16,3 C 73 % 1028 hPa 0,0 l/m 11,4 C 16,3 C 0,0 km/h (0 Bft)
05.09.2004 00:00 15,4 C 77 % 1028 hPa 0,0 l/m 11,4 C 15,2 C 6,1 km/h (2 Bft)
05.09.2004 01:00 14,9 C 80 % 1028 hPa 0,0 l/m 11,5 C 14,7 C 5,0 km/h (1 Bft)
05.09.2004 02:00 14,5 C 82 % 1028 hPa 0,0 l/m 11,5 C 14,1 C 7,2 km/h (2 Bft)
05.09.2004 03:00 14,1 C 84 % 1028 hPa 0,0 l/m 11,4 C 13,7 C 6,1 km/h (2 Bft)
05.09.2004 04:00 13,7 C 86 % 1027 hPa 0,0 l/m 11,3 C 13,5 C 4,6 km/h (1 Bft)
05.09.2004 05:00 13,4 C 88 % 1027 hPa 0,0 l/m 11,4 C 12,7 C 7,4 km/h (2 Bft)
05.09.2004 06:00 13,0 C 90 % 1027 hPa 0,0 l/m 11,3 C 11,8 C 8,3 km/h (2 Bft)
05.09.2004 07:00 13,0 C 91 % 1027 hPa 0,0 l/m 11,6 C 12,0 C 7,6 km/h (2 Bft)
05.09.2004 08:00 14,2 C 89 % 1027 hPa 0,0 l/m 12,4 C 13,8 C 6,4 km/h (2 Bft)
05.09.2004 09:00 17,1 C 76 % 1027 hPa 0,0 l/m 12,9 C 15,3 C 11,6 km/h (2 Bft)
05.09.2004 10:00 20,3 C 64 % 1027 hPa 0,0 l/m 13,2 C 18,9 C 11,4 km/h (2 Bft)
05.09.2004 11:00 22,5 C 57 % 1027 hPa 0,0 l/m 13,5 C 20,9 C 13,9 km/h (3 Bft)
05.09.2004 12:00 24,6 C 43 % 1027 hPa 0,0 l/m 11,1 C 22,1 C 23,1 km/h (4 Bft)
05.09.2004 13:00 25,4 C 38 % 1026 hPa 0,0 l/m 10,2 C 23,1 C 24,0 km/h (4 Bft)
05.09.2004 14:00 26,1 C 35 % 1026 hPa 0,0 l/m 9,5 C 24,3 C 22,3 km/h (4 Bft)
05.09.2004 15:00 26,3 C 35 % 1025 hPa 0,0 l/m 9,6 C 24,2 C 24,9 km/h (4 Bft)
05.09.2004 16:00 25,7 C 34 % 1025 hPa 0,0 l/m 8,8 C 23,7 C 21,4 km/h (4 Bft)
05.09.2004 17:00 25,2 C 33 % 1024 hPa 0,0 l/m 7,7 C 23,2 C 20,3 km/h (4 Bft)
05.09.2004 18:00 24,6 C 33 % 1024 hPa 0,0 l/m 7,3 C 22,9 C 17,6 km/h (3 Bft)
05.09.2004 19:00 22,3 C 41 % 1024 hPa 0,0 l/m 8,4 C 21,5 C 7,8 km/h (2 Bft)
05.09.2004 20:00 20,4 C 48 % 1025 hPa 0,0 l/m 8,9 C 19,6 C 8,5 km/h (2 Bft)
05.09.2004 21:00 17,9 C 59 % 1025 hPa 0,0 l/m 9,9 C 17,9 C 0,6 km/h (0 Bft)
05.09.2004 22:00 16,2 C 68 % 1025 hPa 0,0 l/m 10,2 C 16,2 C 0,9 km/h (0 Bft)
05.09.2004 23:00 15,3 C 71 % 1025 hPa 0,0 l/m 10,1 C 15,2 C 2,8 km/h (1 Bft)
Min-Datum _ 04.09.04 04.09.04 04.09.04 - 04.09.04 04.09.04 30.08.04
_ Min-Zeit 00:00 00:00 00:00 - 00:00 00:00 00:46
Minimum _ 0,0 C 0 % 0 hPa - 0,0 C 0,0 C 0,0 km/h (0 Bft)
Max-Datum _ 04.09.04 30.08.04 04.09.04 30.08.04 30.08.04 04.09.04 30.08.04
_ Max-Zeit 17:58 02:28 19:41 17:22 09:28 17:58 11:44
Maximum _ 26,4 C 98 % 1028 hPa 4,0 l/m 14,5 C 26,4 C 39,3 km/h
S-SW (6 Bft)
Durchschnitt _ 16,5 C 71 % 1021 hPa #8,0 l/m 10,3 C 15,6 C 7,3 km/h (2 Bft)

Durchschnitt Minimum Temp.15,5 C
Durchschnitt Maximum Temp.17,3 C